Log Cabin, Texas
Current Conditions -  °F | °C
As of 5:15 AM on Sunday 21 Dec 2014 (Local Time) from KF44 Reporting Station
Overcast Overcast  
Wind Chill: 43°   Ceiling: 1700
Heat Index: 43°   Visibility: 7mi
Dew Point: 43°   Wind: 3mph
Humidity: 100%   Direction: 130°SE
Pressure: 30.13"   Gusts: NA
Location:  32.115°N, 95.9849°W
Report Text: KF44 211115Z AUTO 13003KT 7SM BKN017 OVC024 06/06 A3013 RMK AO2
Loading
Personal Weather Stations






























Interactive Weather Map New forecast layout! Learn more

10-Day Weather Forecast

Advertisements
Track Severe Weather on mobile